EFIV Airport Information

Runway Information
Runway 04 Length 8199 ft width 148 ft
Elevation 480 ft Threshold 0 ft Heading 47
Runway 22 Length 8199 ft Width 148 ft
Elevation 463 ft Threshold 0 ft Heading 227
Runway 08 Length 2625 ft width 148 ft
Elevation 475 ft Threshold 0 ft Heading 92
Runway 26 Length 2625 ft Width 148 ft
Elevation 468 ft Threshold 0 ft Heading 272
Airport Frequencies
Type ATIS Name ATIS Frequency 123.2 MHZ
Type TWR Name TWR Frequency 118 MHZ
Airport Navaids
Type NDB Name Akujarvi Frequency 432 KHZ
Airport Weather Information & NOTAM
ADDS - METARS form results

(2046 UTC 11 May 2021)
Data provider http://aviationweather.gov/metar/data/
 
METAR text: EFIV 112020Z AUTO 23007KT 9999 BKN012 05/03 Q1013
Conditions at: EFIV (IVALO , FI) observed 2020 UTC 11 May 2021
Temperature: 5.0°C (41°F)
Dewpoint: 3.0°C (37°F) [RH = 87%]
Pressure (altimeter): 29.91 inches Hg (1013.0 mb)
Winds: from the SW (230 degrees) at 8 MPH (7 knots; 3.6 m/s)
Visibility: 6 or more miles (10+ km)
Ceiling: 1200 feet AGL
Clouds: broken clouds at 1200 feet AGL
Weather: no significant weather observed at this time

METAR text: EFIV 111950Z AUTO 24010KT 9999 OVC014 05/03 Q1013
Conditions at: EFIV (IVALO , FI) observed 1950 UTC 11 May 2021
Temperature: 5.0°C (41°F)
Dewpoint: 3.0°C (37°F) [RH = 87%]
Pressure (altimeter): 29.91 inches Hg (1013.0 mb)
Winds: from the WSW (240 degrees) at 12 MPH (10 knots; 5.1 m/s)
Visibility: 6 or more miles (10+ km)
Ceiling: 1400 feet AGL
Clouds: overcast cloud deck at 1400 feet AGL
Weather: no significant weather observed at this time